createdAt,value
2018-08-24T00:04:15.077Z,50.45
2018-08-24T00:09:10.900Z,51.17
2018-08-24T00:14:03.443Z,50.56
2018-08-24T00:18:55.943Z,50.40
2018-08-24T00:23:48.438Z,51.10
2018-08-24T00:28:40.967Z,50.93
2018-08-24T00:33:33.484Z,50.83
2018-08-24T00:38:25.963Z,51.23
2018-08-24T00:43:18.457Z,51.41
2018-08-24T00:48:10.917Z,51.76
2018-08-24T00:53:03.351Z,51.96
2018-08-24T00:57:55.938Z,51.19
2018-08-24T01:02:48.538Z,52.02
2018-08-24T01:07:47.157Z,51.77
2018-08-24T01:12:39.656Z,52.80
2018-08-24T01:17:37.950Z,52.73
2018-08-24T01:22:30.475Z,52.81
2018-08-24T01:27:22.968Z,52.41
2018-08-24T01:32:15.403Z,51.69
2018-08-24T01:37:07.887Z,52.90
2018-08-24T01:42:00.323Z,53.09
2018-08-24T01:46:52.859Z,53.06
2018-08-24T01:51:45.402Z,53.08
2018-08-24T01:56:37.912Z,52.30
2018-08-24T02:01:30.334Z,53.02
2018-08-24T02:06:22.811Z,53.37
2018-08-24T02:11:21.150Z,53.18
2018-08-24T02:16:13.726Z,53.71
2018-08-24T02:21:11.943Z,54.11
2018-08-24T02:26:04.702Z,54.03
2018-08-24T02:30:57.187Z,53.60
2018-08-24T02:35:49.715Z,53.85
2018-08-24T02:40:42.148Z,54.60
2018-08-24T02:45:34.562Z,53.97
2018-08-24T02:50:27.006Z,55.09
2018-08-24T02:55:19.485Z,54.28
2018-08-24T03:00:11.934Z,55.08
2018-08-24T03:05:04.588Z,55.27
2018-08-24T03:09:57.155Z,55.65
2018-08-24T03:14:49.776Z,56.00
2018-08-24T03:19:42.283Z,55.80
2018-08-24T03:24:34.977Z,55.73
2018-08-24T03:29:27.471Z,56.05
2018-08-24T03:34:19.946Z,55.18
2018-08-24T03:39:12.421Z,55.90
2018-08-24T03:44:05.279Z,57.63
2018-08-24T03:48:57.718Z,57.73
2018-08-24T03:53:50.252Z,58.30
2018-08-24T03:58:42.794Z,58.79
2018-08-24T04:03:35.443Z,59.95
2018-08-24T04:08:27.845Z,59.69
2018-08-24T04:13:20.874Z,60.15
2018-08-24T04:18:13.425Z,59.43
2018-08-24T04:23:06.115Z,60.60
2018-08-24T04:27:58.636Z,60.03
2018-08-24T04:32:51.099Z,59.55
2018-08-24T04:37:43.531Z,59.56
2018-08-24T04:42:36.108Z,58.62
2018-08-24T04:47:28.656Z,59.03
2018-08-24T04:52:21.614Z,57.89
2018-08-24T04:57:14.160Z,58.23
2018-08-24T05:02:06.793Z,58.32
2018-08-24T05:06:59.304Z,58.41
2018-08-24T05:11:51.823Z,57.79
2018-08-24T05:16:44.299Z,58.26
2018-08-24T05:21:37.072Z,57.98
2018-08-24T05:26:29.602Z,58.31
2018-08-24T05:31:22.363Z,58.07
2018-08-24T05:36:14.890Z,57.47
2018-08-24T05:41:07.468Z,57.26
2018-08-24T05:45:59.964Z,57.66
2018-08-24T05:50:52.621Z,57.43
2018-08-24T05:55:45.161Z,58.51
2018-08-24T06:00:39.902Z,58.61
2018-08-24T06:05:32.492Z,58.80
2018-08-24T06:10:25.089Z,59.00
2018-08-24T06:15:17.781Z,58.75
2018-08-24T06:20:10.484Z,59.72
2018-08-24T06:25:02.981Z,59.25
2018-08-24T06:29:55.499Z,58.33
2018-08-24T06:34:47.968Z,58.66
2018-08-24T06:39:40.944Z,57.50
2018-08-24T06:44:33.781Z,57.46
2018-08-24T06:49:26.307Z,56.72
2018-08-24T06:54:22.727Z,56.74
2018-08-24T06:59:15.310Z,56.32
2018-08-24T07:04:07.898Z,55.19
2018-08-24T07:09:00.431Z,54.29
2018-08-24T07:13:52.887Z,53.71
2018-08-24T07:18:45.480Z,54.22
2018-08-24T07:23:37.965Z,54.58
2018-08-24T07:28:30.644Z,53.50
2018-08-24T07:33:23.234Z,52.63
2018-08-24T07:38:15.760Z,51.10
2018-08-24T07:43:08.281Z,51.99
2018-08-24T07:48:01.114Z,51.87
2018-08-24T07:52:53.683Z,52.35
2018-08-24T07:57:46.212Z,51.73
2018-08-24T08:02:45.275Z,52.19
2018-08-24T08:07:37.726Z,52.52
2018-08-24T08:12:30.285Z,52.45
2018-08-24T08:17:22.938Z,53.37
2018-08-24T08:22:15.362Z,55.01
2018-08-24T08:27:07.905Z,55.27
2018-08-24T08:32:00.392Z,54.96
2018-08-24T08:36:53.025Z,54.76
2018-08-24T08:41:45.495Z,55.47
2018-08-24T08:46:38.052Z,55.12
2018-08-24T08:51:31.232Z,54.58
2018-08-24T08:56:23.827Z,53.24
2018-08-24T09:01:16.312Z,52.40
2018-08-24T09:06:09.014Z,52.75
2018-08-24T09:11:01.518Z,52.02
2018-08-24T09:15:54.236Z,50.88
2018-08-24T09:20:52.362Z,50.89
2018-08-24T09:25:50.958Z,50.55
2018-08-24T09:31:02.253Z,50.41
2018-08-24T09:35:54.795Z,49.31
2018-08-24T09:40:53.014Z,49.45
2018-08-24T09:45:45.520Z,48.80
2018-08-24T09:50:43.689Z,48.45
2018-08-24T09:55:39.386Z,49.59
2018-08-24T10:00:37.602Z,48.66
2018-08-24T10:05:35.871Z,48.84
2018-08-24T10:10:28.304Z,48.85
2018-08-24T10:15:20.880Z,48.73
2018-08-24T10:20:13.329Z,48.05
2018-08-24T10:25:05.799Z,50.04
2018-08-24T10:29:58.377Z,49.53
2018-08-24T10:34:50.831Z,48.29
2018-08-24T10:39:43.536Z,48.00
2018-08-24T10:44:36.000Z,46.45
2018-08-24T10:49:28.592Z,46.90
2018-08-24T10:54:21.054Z,46.89
2018-08-24T10:59:13.504Z,46.17
2018-08-24T11:04:08.026Z,45.81
2018-08-24T11:09:00.595Z,43.72
2018-08-24T11:13:53.098Z,44.30
2018-08-24T11:18:45.631Z,45.12
2018-08-24T11:23:38.233Z,45.52
2018-08-24T11:28:30.728Z,44.93
2018-08-24T11:33:23.302Z,45.03
2018-08-24T11:38:15.844Z,44.67
2018-08-24T11:43:08.394Z,45.22
2018-08-24T11:48:00.997Z,45.70
2018-08-24T11:52:53.602Z,45.59
2018-08-24T11:57:46.093Z,46.27
2018-08-24T12:02:38.686Z,45.71
2018-08-24T12:07:31.140Z,46.78
2018-08-24T12:12:23.685Z,47.08
2018-08-24T12:17:23.950Z,46.86
2018-08-24T12:22:16.397Z,46.46
2018-08-24T12:27:09.018Z,44.55
2018-08-24T12:32:01.405Z,44.33
2018-08-24T12:44:22.358Z,43.45
2018-08-24T12:49:15.425Z,43.27
2018-08-24T12:54:08.233Z,42.62
2018-08-24T12:59:00.733Z,42.52
2018-08-24T13:03:53.297Z,42.38
2018-08-24T13:08:45.818Z,40.92
2018-08-24T13:13:38.351Z,41.86
2018-08-24T13:18:30.895Z,42.41
2018-08-24T13:23:23.442Z,42.58
2018-08-24T13:28:19.466Z,44.35
2018-08-24T13:33:12.095Z,44.23
2018-08-24T13:38:05.095Z,44.75
2018-08-24T13:42:57.547Z,44.98
2018-08-24T13:47:50.082Z,44.84
2018-08-24T13:52:42.540Z,45.11
2018-08-24T13:57:35.016Z,43.77
2018-08-24T14:02:27.522Z,42.62
2018-08-24T14:07:20.068Z,41.16
2018-08-24T14:12:12.531Z,41.80
2018-08-24T14:17:05.079Z,41.45
2018-08-24T14:21:57.608Z,41.46
2018-08-24T14:26:50.149Z,40.79
2018-08-24T14:31:42.702Z,41.06
2018-08-24T14:36:35.171Z,39.96
2018-08-24T14:41:27.635Z,40.08
2018-08-24T14:46:20.138Z,39.30
2018-08-24T14:51:12.634Z,39.43
2018-08-24T14:56:05.346Z,36.49
2018-08-24T15:00:57.876Z,36.82
2018-08-24T15:05:50.496Z,36.65
2018-08-24T15:10:43.017Z,37.17
2018-08-24T15:15:35.582Z,37.32
2018-08-24T15:20:28.212Z,37.07
2018-08-24T15:25:20.799Z,36.29
2018-08-24T15:30:13.215Z,36.18
2018-08-24T15:35:06.140Z,36.94
2018-08-24T15:39:58.681Z,38.05
2018-08-24T15:44:51.212Z,38.75
2018-08-24T15:49:43.753Z,38.86
2018-08-24T15:54:36.287Z,38.45
2018-08-24T15:59:28.786Z,37.64
2018-08-24T16:04:21.226Z,38.83
2018-08-24T16:09:13.935Z,38.61
2018-08-24T16:14:06.382Z,38.36
2018-08-24T16:26:25.922Z,38.92
2018-08-24T16:31:18.367Z,39.82
2018-08-24T16:36:10.908Z,39.82
2018-08-24T16:41:03.408Z,39.48
2018-08-24T16:45:55.940Z,40.40
2018-08-24T16:50:48.710Z,40.31
2018-08-24T16:55:41.178Z,39.81
2018-08-24T17:00:33.764Z,40.80
2018-08-24T17:05:26.285Z,40.18
2018-08-24T17:10:18.738Z,39.57
2018-08-24T17:15:11.194Z,39.62
2018-08-24T17:20:04.374Z,39.92
2018-08-24T17:24:56.927Z,38.02
2018-08-24T17:29:49.415Z,36.82
2018-08-24T17:34:42.080Z,36.92
2018-08-24T17:39:34.572Z,37.94
2018-08-24T17:44:27.224Z,37.45
2018-08-24T17:49:19.740Z,37.57
2018-08-24T17:54:12.401Z,37.73
2018-08-24T17:59:04.952Z,37.68
2018-08-24T18:03:57.524Z,37.87
2018-08-24T18:08:50.326Z,37.48
2018-08-24T18:13:42.754Z,38.09
2018-08-24T18:18:35.287Z,39.04
2018-08-24T18:23:27.862Z,39.40
2018-08-24T18:28:20.441Z,40.13
2018-08-24T18:33:13.023Z,39.36
2018-08-24T18:38:05.488Z,39.91
2018-08-24T18:42:57.960Z,40.98
2018-08-24T18:47:50.491Z,41.11
2018-08-24T18:52:43.001Z,40.24
2018-08-24T18:57:35.462Z,41.01
2018-08-24T19:02:27.970Z,40.77
2018-08-24T19:07:20.428Z,41.05
2018-08-24T19:12:18.827Z,41.85
2018-08-24T19:17:16.881Z,41.82
2018-08-24T19:22:09.493Z,41.46
2018-08-24T19:27:02.061Z,41.68
2018-08-24T19:31:54.506Z,42.01
2018-08-24T19:36:46.968Z,42.12
2018-08-24T19:41:45.562Z,42.14
2018-08-24T19:46:38.028Z,43.00
2018-08-24T19:51:30.536Z,42.50
2018-08-24T19:56:22.966Z,43.50
2018-08-24T20:01:15.746Z,43.17
2018-08-24T20:06:13.902Z,44.33
2018-08-24T20:11:07.011Z,44.63
2018-08-24T20:16:05.423Z,44.47
2018-08-24T20:20:57.858Z,44.02
2018-08-24T20:25:50.423Z,44.48
2018-08-24T20:30:43.032Z,44.66
2018-08-24T20:35:36.672Z,44.67
2018-08-24T20:40:29.441Z,45.30
2018-08-24T20:45:21.871Z,44.91
2018-08-24T20:50:14.374Z,45.36
2018-08-24T20:55:06.860Z,45.16
2018-08-24T20:59:59.464Z,45.39
2018-08-24T21:04:51.946Z,45.16
2018-08-24T21:09:44.420Z,45.49
2018-08-24T21:14:36.935Z,45.52
2018-08-24T21:19:29.433Z,46.01
2018-08-24T21:24:21.928Z,46.06
2018-08-24T21:29:14.458Z,45.66
2018-08-24T21:34:06.973Z,46.05
2018-08-24T21:38:59.429Z,46.06
2018-08-24T21:43:52.095Z,45.47
2018-08-24T21:48:44.692Z,45.90
2018-08-24T21:53:37.333Z,44.45
2018-08-24T21:58:29.826Z,44.85
2018-08-24T22:03:22.257Z,45.37
2018-08-24T22:08:14.808Z,44.70
2018-08-24T22:13:07.323Z,44.47
2018-08-24T22:17:59.948Z,44.71
2018-08-24T22:22:52.448Z,44.58
2018-08-24T22:27:44.937Z,44.63
2018-08-24T22:32:37.458Z,44.47
2018-08-24T22:37:29.964Z,43.82
2018-08-24T22:42:22.448Z,43.02
2018-08-24T22:47:14.893Z,43.12
2018-08-24T22:52:07.360Z,42.93
2018-08-24T22:56:59.888Z,42.87
2018-08-24T23:01:52.353Z,42.51
2018-08-24T23:06:44.828Z,41.47
2018-08-24T23:11:37.415Z,41.01
2018-08-24T23:16:29.843Z,41.01
2018-08-24T23:21:22.353Z,41.49
2018-08-24T23:26:14.778Z,41.91
2018-08-24T23:31:07.332Z,42.74
2018-08-24T23:35:59.865Z,43.07
2018-08-24T23:40:52.369Z,42.67
2018-08-24T23:45:45.075Z,42.57
2018-08-24T23:50:37.619Z,42.55
2018-08-24T23:55:30.075Z,43.25
